SCC51XY EGPF-EGPO

Flight info

Callsign SCC51XY
Flight time 0h 45m
Altitude 18000
Route LOMON DCT STN
Aircraft AT76/M-SDFGIRY/S

Departure

Time 2026-04-21 18:08
Airport Glasgow Airport (EGPF)

Arrival

Time 2026-04-21 18:53
Airport Stornoway Airport (EGPO)
Time Latitude Longitude Altitude Speed Heading
2026-04-21 17:55 55.86574 -4.42823 25 ft 0 kts 71°
2026-04-21 18:01 55.86570 -4.42844 30 ft 2 kts 71°
2026-04-21 18:01 55.86564 -4.42874 26 ft 3 kts 71°
2026-04-21 18:01 55.86558 -4.42907 30 ft 3 kts 71°
2026-04-21 18:01 55.86557 -4.42913 28 ft 0 kts 71°
2026-04-21 18:04 55.86559 -4.42910 28 ft 0 kts 58°
2026-04-21 18:04 55.86576 -4.42894 30 ft 8 kts 15°
2026-04-21 18:04 55.86676 -4.42927 26 ft 21 kts 345°
2026-04-21 18:04 55.86834 -4.43052 28 ft 26 kts 295°
2026-04-21 18:05 55.86781 -4.43432 27 ft 33 kts 252°
2026-04-21 18:05 55.86718 -4.43770 28 ft 16 kts 237°
2026-04-21 18:05 55.86596 -4.44006 27 ft 31 kts 226°
2026-04-21 18:05 55.86447 -4.44284 29 ft 32 kts 226°
2026-04-21 18:06 55.86288 -4.44576 26 ft 31 kts 225°
2026-04-21 18:06 55.86284 -4.44780 28 ft 8 kts 318°
2026-04-21 18:06 55.86285 -4.44782 28 ft 0 kts 318°
2026-04-21 18:07 55.86353 -4.44837 30 ft 27 kts
2026-04-21 18:07 55.86640 -4.44364 34 ft 84 kts 45°
2026-04-21 18:07 55.87142 -4.43426 32 ft 121 kts 47°
2026-04-21 18:07 55.87744 -4.42322 341 ft 124 kts 49°
2026-04-21 18:08 55.88356 -4.41158 810 ft 136 kts 51°
2026-04-21 18:08 55.89128 -4.39864 976 ft 165 kts 47°
2026-04-21 18:08 55.89953 -4.38311 1385 ft 178 kts 51°
2026-04-21 18:08 55.90802 -4.36656 1901 ft 183 kts 51°
2026-04-21 18:09 55.91665 -4.34966 2418 ft 186 kts 51°
2026-04-21 18:09 55.91792 -4.34720 2484 ft 186 kts 51°
2026-04-21 18:09 55.92595 -4.33186 2983 ft 188 kts 51°
2026-04-21 18:09 55.93715 -4.31948 3490 ft 202 kts 15°
2026-04-21 18:10 55.95132 -4.32427 3976 ft 220 kts 334°
2026-04-21 18:10 55.96163 -4.34501 4440 ft 232 kts 295°
2026-04-21 18:10 55.96505 -4.37288 4945 ft 230 kts 277°
2026-04-21 18:10 55.96657 -4.40142 5448 ft 233 kts 274°
2026-04-21 18:11 55.96743 -4.43100 5692 ft 243 kts 271°
2026-04-21 18:11 55.96787 -4.46214 5801 ft 257 kts 270°
2026-04-21 18:11 55.96796 -4.49467 5920 ft 265 kts 270°
2026-04-21 18:11 55.97261 -4.52650 5952 ft 271 kts 302°
2026-04-21 18:12 55.98593 -4.54986 5971 ft 271 kts 334°
2026-04-21 18:12 56.00382 -4.55813 5997 ft 266 kts
2026-04-21 18:12 56.02255 -4.56033 5994 ft 273 kts 358°
2026-04-21 18:12 56.04126 -4.56606 6256 ft 269 kts 351°
2026-04-21 18:13 56.05895 -4.57557 6655 ft 263 kts 345°
2026-04-21 18:13 56.07586 -4.58720 7042 ft 258 kts 341°
2026-04-21 18:13 56.09221 -4.59967 7408 ft 253 kts 341°
2026-04-21 18:13 56.10833 -4.61199 7780 ft 250 kts 341°
2026-04-21 18:14 56.14025 -4.63488 8535 ft 245 kts 343°
2026-04-21 18:14 56.15608 -4.64600 8935 ft 243 kts 342°
2026-04-21 18:14 56.17160 -4.65693 9319 ft 242 kts 342°
2026-04-21 18:15 56.18724 -4.66801 9705 ft 241 kts 342°
2026-04-21 18:15 56.20275 -4.67904 10105 ft 240 kts 342°
2026-04-21 18:15 56.21824 -4.69007 10511 ft 239 kts 342°
2026-04-21 18:15 56.23368 -4.70098 10886 ft 238 kts 342°
2026-04-21 18:16 56.24908 -4.71189 11262 ft 238 kts 343°
2026-04-21 18:16 56.26450 -4.72284 11658 ft 239 kts 342°
2026-04-21 18:16 56.27995 -4.73382 12043 ft 239 kts 343°
2026-04-21 18:16 56.29546 -4.74482 12424 ft 240 kts 343°
2026-04-21 18:17 56.31096 -4.75589 12806 ft 239 kts 343°
2026-04-21 18:17 56.32642 -4.76688 13192 ft 239 kts 342°
2026-04-21 18:17 56.34182 -4.77787 13597 ft 238 kts 343°
2026-04-21 18:17 56.35722 -4.78886 14001 ft 237 kts 343°
2026-04-21 18:18 56.37255 -4.79980 14399 ft 237 kts 343°
2026-04-21 18:18 56.38782 -4.81073 14756 ft 235 kts 343°
2026-04-21 18:18 56.40297 -4.82158 15131 ft 234 kts 343°
2026-04-21 18:18 56.41805 -4.83238 15507 ft 232 kts 343°
2026-04-21 18:19 56.43306 -4.84314 15886 ft 231 kts 343°
2026-04-21 18:19 56.44793 -4.85385 16244 ft 229 kts 343°
2026-04-21 18:19 56.46263 -4.86441 16655 ft 227 kts 343°
2026-04-21 18:19 56.47724 -4.87491 17053 ft 225 kts 343°
2026-04-21 18:20 56.49174 -4.88535 17455 ft 223 kts 343°
2026-04-21 18:20 56.50611 -4.89567 17838 ft 222 kts 343°
2026-04-21 18:20 56.52089 -4.90625 17942 ft 234 kts 343°
2026-04-21 18:20 56.53646 -4.91740 17975 ft 246 kts 343°
2026-04-21 18:21 56.55273 -4.92907 17998 ft 257 kts 342°
2026-04-21 18:21 56.56960 -4.94139 18016 ft 266 kts 342°
2026-04-21 18:21 56.58702 -4.95408 17983 ft 273 kts 342°
2026-04-21 18:21 56.60482 -4.96700 18024 ft 278 kts 342°
2026-04-21 18:22 56.62292 -4.98014 17995 ft 282 kts 342°
2026-04-21 18:22 56.64129 -4.99344 18016 ft 286 kts 342°
2026-04-21 18:22 56.65988 -5.00694 18014 ft 289 kts 342°
2026-04-21 18:22 56.67865 -5.02061 17998 ft 292 kts 342°
2026-04-21 18:23 56.69729 -5.03421 17993 ft 293 kts 342°
2026-04-21 18:23 56.71622 -5.04798 18008 ft 294 kts 342°
2026-04-21 18:23 56.73520 -5.06183 18009 ft 294 kts 342°
2026-04-21 18:23 56.75426 -5.07574 18007 ft 295 kts 341°
2026-04-21 18:24 56.77355 -5.08986 18002 ft 295 kts 341°
2026-04-21 18:24 56.79236 -5.10362 18005 ft 295 kts 342°
2026-04-21 18:24 56.81143 -5.11756 18010 ft 295 kts 342°
2026-04-21 18:24 56.83050 -5.13155 18012 ft 295 kts 341°
2026-04-21 18:25 56.84958 -5.14556 18021 ft 296 kts 341°
2026-04-21 18:25 56.86864 -5.15957 18011 ft 296 kts 342°
2026-04-21 18:25 56.88776 -5.17363 18024 ft 296 kts 341°
2026-04-21 18:25 56.90688 -5.18771 18015 ft 296 kts 341°
2026-04-21 18:26 56.92602 -5.20181 18010 ft 296 kts 341°
2026-04-21 18:26 56.94513 -5.21593 18010 ft 296 kts 342°
2026-04-21 18:26 56.96427 -5.23006 18015 ft 296 kts 341°
2026-04-21 18:26 56.98336 -5.24419 18020 ft 296 kts 341°
2026-04-21 18:27 57.00248 -5.25837 18019 ft 297 kts 342°
2026-04-21 18:27 57.02162 -5.27254 18020 ft 296 kts 341°
2026-04-21 18:27 57.04076 -5.28676 18014 ft 296 kts 342°
2026-04-21 18:27 57.05985 -5.30093 18022 ft 296 kts 342°
2026-04-21 18:28 57.07893 -5.31512 18026 ft 296 kts 341°
2026-04-21 18:28 57.09801 -5.32934 18028 ft 296 kts 341°
2026-04-21 18:28 57.11707 -5.34353 18019 ft 296 kts 341°
2026-04-21 18:28 57.12971 -5.35294 18025 ft 296 kts 341°
2026-04-21 18:29 57.14879 -5.36722 18030 ft 296 kts 341°
2026-04-21 18:29 57.16786 -5.38151 18025 ft 296 kts 341°
2026-04-21 18:29 57.19318 -5.40046 18031 ft 297 kts 341°
2026-04-21 18:29 57.21237 -5.41490 18018 ft 297 kts 341°
2026-04-21 18:30 57.22531 -5.42459 18025 ft 297 kts 341°
2026-04-21 18:30 57.25067 -5.44363 18023 ft 296 kts 341°
2026-04-21 18:30 57.26354 -5.45336 18025 ft 296 kts 341°
2026-04-21 18:30 57.28261 -5.46767 18024 ft 296 kts 341°
2026-04-21 18:31 57.30166 -5.48203 18028 ft 295 kts 341°
2026-04-21 18:31 57.32066 -5.49636 18037 ft 295 kts 341°
2026-04-21 18:31 57.33962 -5.51075 18030 ft 295 kts 341°
2026-04-21 18:31 57.35837 -5.52487 18031 ft 294 kts 341°
2026-04-21 18:32 57.37732 -5.53926 18034 ft 294 kts 341°
2026-04-21 18:32 57.39626 -5.55355 18036 ft 294 kts 341°
2026-04-21 18:32 57.41517 -5.56799 18035 ft 293 kts 341°
2026-04-21 18:32 57.43434 -5.58247 18031 ft 293 kts 341°
2026-04-21 18:33 57.45321 -5.59687 18036 ft 293 kts 341°
2026-04-21 18:33 57.47180 -5.61103 18047 ft 293 kts 341°
2026-04-21 18:33 57.49068 -5.62542 18046 ft 293 kts 341°
2026-04-21 18:33 57.50959 -5.63985 18035 ft 294 kts 340°
2026-04-21 18:34 57.52849 -5.65429 18036 ft 294 kts 341°
2026-04-21 18:34 57.54740 -5.66873 18033 ft 294 kts 340°
2026-04-21 18:34 57.56632 -5.68324 17901 ft 297 kts 340°
2026-04-21 18:34 57.58565 -5.69793 17370 ft 298 kts 341°
2026-04-21 18:35 57.60474 -5.71243 16839 ft 294 kts 341°
2026-04-21 18:35 57.62362 -5.72680 16315 ft 291 kts 340°
2026-04-21 18:35 57.64222 -5.74108 15815 ft 288 kts 340°
2026-04-21 18:35 57.66068 -5.75531 15312 ft 286 kts 340°
2026-04-21 18:36 57.67905 -5.76940 14815 ft 284 kts 340°
2026-04-21 18:36 57.69728 -5.78331 14325 ft 283 kts 340°
2026-04-21 18:36 57.71545 -5.79723 13784 ft 281 kts 340°
2026-04-21 18:36 57.73349 -5.81110 13248 ft 280 kts 340°
2026-04-21 18:37 57.75145 -5.82500 12687 ft 279 kts 340°
2026-04-21 18:37 57.76933 -5.83892 12031 ft 271 kts 340°
2026-04-21 18:37 57.78621 -5.85216 11394 ft 256 kts 340°
2026-04-21 18:37 57.80228 -5.86477 10770 ft 245 kts 340°
2026-04-21 18:38 57.81778 -5.87688 10130 ft 238 kts 340°
2026-04-21 18:38 57.83289 -5.88864 9457 ft 233 kts 340°
2026-04-21 18:38 57.84764 -5.90026 8801 ft 229 kts 340°
2026-04-21 18:38 57.86222 -5.91182 8156 ft 225 kts 340°
2026-04-21 18:39 57.87656 -5.92307 7524 ft 222 kts 340°
2026-04-21 18:39 57.89077 -5.93421 6905 ft 220 kts 340°
2026-04-21 18:39 57.90483 -5.94520 6249 ft 218 kts 340°
2026-04-21 18:39 57.91879 -5.95613 5607 ft 217 kts 341°
2026-04-21 18:40 57.93266 -5.96701 4959 ft 215 kts 341°
2026-04-21 18:40 57.94640 -5.97772 4310 ft 213 kts 341°
2026-04-21 18:40 57.95544 -5.98480 3888 ft 212 kts 342°
2026-04-21 18:40 57.97348 -5.99902 3004 ft 209 kts 342°
2026-04-21 18:41 57.98684 -6.00946 2371 ft 206 kts 342°
2026-04-21 18:41 57.99973 -6.01959 2059 ft 199 kts 343°
2026-04-21 18:41 58.01277 -6.02975 1924 ft 205 kts 342°
2026-04-21 18:41 58.02597 -6.04012 1867 ft 206 kts 342°
2026-04-21 18:42 58.03917 -6.05053 1825 ft 205 kts 342°
2026-04-21 18:42 58.05226 -6.06085 1811 ft 203 kts 342°
2026-04-21 18:42 58.06523 -6.07112 1809 ft 201 kts 343°
2026-04-21 18:42 58.07812 -6.08131 1809 ft 200 kts 343°
2026-04-21 18:43 58.09098 -6.09141 1803 ft 200 kts 342°
2026-04-21 18:43 58.10378 -6.10152 1798 ft 199 kts 342°
2026-04-21 18:43 58.11653 -6.11161 1797 ft 198 kts 343°
2026-04-21 18:43 58.12928 -6.12168 1812 ft 199 kts 343°
2026-04-21 18:44 58.14204 -6.13179 1801 ft 199 kts 343°
2026-04-21 18:44 58.15486 -6.14200 1798 ft 200 kts 343°
2026-04-21 18:44 58.16750 -6.15203 1798 ft 200 kts 343°
2026-04-21 18:44 58.18034 -6.16210 1788 ft 199 kts 342°
2026-04-21 18:45 58.19096 -6.17863 1787 ft 206 kts 303°
2026-04-21 18:45 58.19354 -6.20520 1798 ft 210 kts 259°
2026-04-21 18:45 58.18688 -6.22902 1820 ft 206 kts 217°
2026-04-21 18:45 58.17438 -6.23945 1796 ft 192 kts 178°
2026-04-21 18:46 58.16121 -6.24020 1788 ft 189 kts 176°
2026-04-21 18:46 58.14801 -6.24138 1793 ft 190 kts 176°
2026-04-21 18:46 58.13478 -6.24274 1792 ft 191 kts 179°
2026-04-21 18:46 58.12152 -6.24594 1793 ft 193 kts 184°
2026-04-21 18:47 58.10838 -6.25124 1795 ft 195 kts 189°
2026-04-21 18:47 58.09530 -6.25846 1790 ft 196 kts 193°
2026-04-21 18:47 58.08240 -6.26707 1797 ft 197 kts 194°
2026-04-21 18:47 58.06960 -6.27619 1800 ft 197 kts 195°
2026-04-21 18:48 58.05787 -6.28886 1795 ft 200 kts 226°
2026-04-21 18:48 58.05303 -6.31284 1798 ft 197 kts 271°
2026-04-21 18:48 58.05760 -6.33591 1802 ft 185 kts 317°
2026-04-21 18:48 58.06828 -6.34604 1802 ft 166 kts
2026-04-21 18:49 58.07901 -6.34230 1791 ft 154 kts 19°
2026-04-21 18:49 58.08950 -6.33922 1792 ft 151 kts 13°
2026-04-21 18:49 58.09638 -6.33785 1792 ft 149 kts 13°
2026-04-21 18:49 58.11007 -6.33549 1791 ft 146 kts 12°
2026-04-21 18:50 58.12014 -6.33404 1801 ft 144 kts 12°
2026-04-21 18:50 58.13003 -6.33234 1782 ft 141 kts 17°
2026-04-21 18:50 58.13826 -6.32836 2119 ft 108 kts 26°
2026-04-21 18:50 58.14619 -6.32399 1882 ft 126 kts 23°
2026-04-21 18:51 58.15524 -6.32134 1427 ft 136 kts 12°
2026-04-21 18:51 58.16487 -6.32156 1001 ft 128 kts
2026-04-21 18:51 58.17261 -6.32302 857 ft 106 kts
2026-04-21 18:51 58.18011 -6.32464 497 ft 107 kts
2026-04-21 18:52 58.18733 -6.32593 345 ft 100 kts
2026-04-21 18:52 58.19418 -6.32719 210 ft 99 kts
2026-04-21 18:52 58.20099 -6.32845 135 ft 96 kts
2026-04-21 18:52 58.20766 -6.32959 33 ft 95 kts
2026-04-21 18:53 58.21289 -6.33045 22 ft 53 kts 357°
2026-04-21 18:53 58.21415 -6.32977 24 ft 19 kts 66°
2026-04-21 18:53 58.21511 -6.32628 24 ft 34 kts 61°
2026-04-21 18:53 58.21491 -6.32481 28 ft 0 kts 148°
2026-04-21 18:54 58.21481 -6.32469 25 ft 12 kts 147°
2026-04-21 18:54 58.21466 -6.32222 26 ft 28 kts 81°
2026-04-21 18:54 58.21551 -6.31909 26 ft 27 kts 19°
2026-04-21 18:54 58.21698 -6.32058 26 ft 34 kts 314°
2026-04-21 18:55 58.21818 -6.32264 26 ft 38 kts 317°
2026-04-21 18:55 58.21855 -6.32562 25 ft 12 kts 289°
2026-04-21 18:55 58.21861 -6.32574 27 ft 0 kts 322°